sensor_id;sensor_type;location;lat;lon;timestamp;P1;durP1;ratioP1;P2;durP2;ratioP2
59388;SDS011;51830;45.202;19.720;2023-10-09T00:02:11;5.30;;;1.77;;
59388;SDS011;51830;45.202;19.720;2023-10-09T00:04:43;5.03;;;1.52;;
59388;SDS011;51830;45.202;19.720;2023-10-09T00:07:12;6.75;;;1.95;;
59388;SDS011;51830;45.202;19.720;2023-10-09T00:09:42;6.20;;;1.92;;
59388;SDS011;51830;45.202;19.720;2023-10-09T00:12:16;5.38;;;1.92;;
59388;SDS011;51830;45.202;19.720;2023-10-09T00:14:47;6.18;;;1.90;;
59388;SDS011;51830;45.202;19.720;2023-10-09T00:17:16;5.65;;;1.95;;
59388;SDS011;51830;45.202;19.720;2023-10-09T00:19:44;7.38;;;2.03;;
59388;SDS011;51830;45.202;19.720;2023-10-09T00:22:13;6.40;;;1.77;;
59388;SDS011;51830;45.202;19.720;2023-10-09T00:24:46;9.45;;;2.03;;
59388;SDS011;51830;45.202;19.720;2023-10-09T00:27:15;6.53;;;2.00;;
59388;SDS011;51830;45.202;19.720;2023-10-09T00:29:44;9.68;;;2.63;;
59388;SDS011;51830;45.202;19.720;2023-10-09T00:32:11;5.40;;;1.75;;
59388;SDS011;51830;45.202;19.720;2023-10-09T00:34:57;10.07;;;1.85;;
59388;SDS011;51830;45.202;19.720;2023-10-09T00:37:43;7.30;;;1.88;;
59388;SDS011;51830;45.202;19.720;2023-10-09T00:40:10;5.95;;;1.75;;
59388;SDS011;51830;45.202;19.720;2023-10-09T00:42:48;5.82;;;1.70;;
59388;SDS011;51830;45.202;19.720;2023-10-09T00:45:14;8.52;;;1.92;;
59388;SDS011;51830;45.202;19.720;2023-10-09T00:47:50;7.35;;;1.60;;
59388;SDS011;51830;45.202;19.720;2023-10-09T00:50:21;4.53;;;1.70;;
59388;SDS011;51830;45.202;19.720;2023-10-09T00:52:50;5.72;;;1.90;;
59388;SDS011;51830;45.202;19.720;2023-10-09T00:55:19;7.05;;;1.92;;
59388;SDS011;51830;45.202;19.720;2023-10-09T00:57:47;7.80;;;2.35;;
59388;SDS011;51830;45.202;19.720;2023-10-09T01:00:38;4.63;;;1.77;;
59388;SDS011;51830;45.202;19.720;2023-10-09T01:03:11;5.13;;;1.80;;
59388;SDS011;51830;45.202;19.720;2023-10-09T01:05:45;6.30;;;1.92;;
59388;SDS011;51830;45.202;19.720;2023-10-09T01:08:21;8.65;;;2.05;;
59388;SDS011;51830;45.202;19.720;2023-10-09T01:11:07;5.97;;;1.67;;
59388;SDS011;51830;45.202;19.720;2023-10-09T01:13:43;8.23;;;2.17;;
59388;SDS011;51830;45.202;19.720;2023-10-09T01:16:20;7.35;;;2.20;;
59388;SDS011;51830;45.202;19.720;2023-10-09T01:18:51;10.57;;;2.88;;
59388;SDS011;51830;45.202;19.720;2023-10-09T01:21:18;8.57;;;2.10;;
59388;SDS011;51830;45.202;19.720;2023-10-09T01:23:49;9.43;;;2.45;;
59388;SDS011;51830;45.202;19.720;2023-10-09T01:26:34;13.48;;;3.63;;
59388;SDS011;51830;45.202;19.720;2023-10-09T01:29:12;13.18;;;3.15;;
59388;SDS011;51830;45.202;19.720;2023-10-09T01:31:45;11.52;;;2.92;;
59388;SDS011;51830;45.202;19.720;2023-10-09T01:34:32;7.10;;;2.00;;
59388;SDS011;51830;45.202;19.720;2023-10-09T01:37:01;9.80;;;2.60;;
59388;SDS011;51830;45.202;19.720;2023-10-09T01:39:30;9.55;;;2.30;;
59388;SDS011;51830;45.202;19.720;2023-10-09T01:41:56;8.93;;;2.20;;
59388;SDS011;51830;45.202;19.720;2023-10-09T01:44:27;12.93;;;3.25;;
59388;SDS011;51830;45.202;19.720;2023-10-09T01:46:56;12.70;;;3.10;;
59388;SDS011;51830;45.202;19.720;2023-10-09T01:49:24;8.85;;;2.30;;
59388;SDS011;51830;45.202;19.720;2023-10-09T01:51:57;12.73;;;2.65;;
59388;SDS011;51830;45.202;19.720;2023-10-09T01:54:26;8.40;;;2.28;;
59388;SDS011;51830;45.202;19.720;2023-10-09T01:57:02;10.25;;;2.40;;
59388;SDS011;51830;45.202;19.720;2023-10-09T01:59:35;7.30;;;2.42;;
59388;SDS011;51830;45.202;19.720;2023-10-09T02:02:06;12.18;;;3.35;;
59388;SDS011;51830;45.202;19.720;2023-10-09T02:04:41;17.63;;;4.22;;
59388;SDS011;51830;45.202;19.720;2023-10-09T02:07:07;15.05;;;4.03;;
59388;SDS011;51830;45.202;19.720;2023-10-09T02:09:34;8.93;;;2.42;;
59388;SDS011;51830;45.202;19.720;2023-10-09T02:12:01;11.32;;;2.65;;
59388;SDS011;51830;45.202;19.720;2023-10-09T02:14:27;11.82;;;2.63;;
59388;SDS011;51830;45.202;19.720;2023-10-09T02:16:54;8.50;;;2.28;;
59388;SDS011;51830;45.202;19.720;2023-10-09T02:19:48;9.70;;;2.40;;
59388;SDS011;51830;45.202;19.720;2023-10-09T02:22:15;6.70;;;2.22;;
59388;SDS011;51830;45.202;19.720;2023-10-09T02:24:43;6.50;;;2.00;;
59388;SDS011;51830;45.202;19.720;2023-10-09T02:27:17;4.30;;;1.70;;
59388;SDS011;51830;45.202;19.720;2023-10-09T02:30:02;7.28;;;1.90;;
59388;SDS011;51830;45.202;19.720;2023-10-09T02:32:36;9.98;;;2.50;;
59388;SDS011;51830;45.202;19.720;2023-10-09T02:35:04;5.88;;;2.05;;
59388;SDS011;51830;45.202;19.720;2023-10-09T02:37:46;10.75;;;2.30;;
59388;SDS011;51830;45.202;19.720;2023-10-09T02:40:13;5.95;;;1.88;;
59388;SDS011;51830;45.202;19.720;2023-10-09T02:42:53;4.18;;;1.60;;
59388;SDS011;51830;45.202;19.720;2023-10-09T02:45:19;7.43;;;2.30;;
59388;SDS011;51830;45.202;19.720;2023-10-09T02:47:54;7.72;;;2.10;;
59388;SDS011;51830;45.202;19.720;2023-10-09T02:50:21;11.50;;;2.55;;
59388;SDS011;51830;45.202;19.720;2023-10-09T02:52:48;3.58;;;1.45;;
59388;SDS011;51830;45.202;19.720;2023-10-09T02:55:18;8.60;;;2.38;;
59388;SDS011;51830;45.202;19.720;2023-10-09T02:57:55;7.43;;;1.77;;
59388;SDS011;51830;45.202;19.720;2023-10-09T03:00:31;10.50;;;2.90;;
59388;SDS011;51830;45.202;19.720;2023-10-09T03:03:01;7.30;;;1.67;;
59388;SDS011;51830;45.202;19.720;2023-10-09T03:05:30;5.57;;;1.67;;
59388;SDS011;51830;45.202;19.720;2023-10-09T03:07:56;9.32;;;1.98;;
59388;SDS011;51830;45.202;19.720;2023-10-09T03:10:22;8.13;;;2.25;;
59388;SDS011;51830;45.202;19.720;2023-10-09T03:12:49;7.82;;;2.30;;
59388;SDS011;51830;45.202;19.720;2023-10-09T03:15:19;7.72;;;2.33;;
59388;SDS011;51830;45.202;19.720;2023-10-09T03:17:45;8.55;;;2.35;;
59388;SDS011;51830;45.202;19.720;2023-10-09T03:20:14;5.57;;;1.88;;
59388;SDS011;51830;45.202;19.720;2023-10-09T03:22:43;4.45;;;2.10;;
59388;SDS011;51830;45.202;19.720;2023-10-09T03:25:10;5.85;;;1.90;;
59388;SDS011;51830;45.202;19.720;2023-10-09T03:27:42;9.60;;;2.17;;
59388;SDS011;51830;45.202;19.720;2023-10-09T03:30:11;7.53;;;2.78;;
59388;SDS011;51830;45.202;19.720;2023-10-09T03:32:42;7.97;;;2.35;;
59388;SDS011;51830;45.202;19.720;2023-10-09T03:35:08;8.43;;;2.22;;
59388;SDS011;51830;45.202;19.720;2023-10-09T03:37:39;6.60;;;2.15;;
59388;SDS011;51830;45.202;19.720;2023-10-09T03:40:05;7.00;;;2.03;;
59388;SDS011;51830;45.202;19.720;2023-10-09T03:42:33;7.72;;;2.10;;
59388;SDS011;51830;45.202;19.720;2023-10-09T03:45:01;8.65;;;2.30;;
59388;SDS011;51830;45.202;19.720;2023-10-09T03:47:37;7.20;;;2.10;;
59388;SDS011;51830;45.202;19.720;2023-10-09T03:50:08;8.98;;;2.25;;
59388;SDS011;51830;45.202;19.720;2023-10-09T03:52:52;9.93;;;2.33;;
59388;SDS011;51830;45.202;19.720;2023-10-09T03:55:20;10.25;;;2.70;;
59388;SDS011;51830;45.202;19.720;2023-10-09T03:57:47;11.70;;;2.55;;
59388;SDS011;51830;45.202;19.720;2023-10-09T04:00:15;13.57;;;2.67;;
59388;SDS011;51830;45.202;19.720;2023-10-09T04:02:43;7.82;;;2.22;;
59388;SDS011;51830;45.202;19.720;2023-10-09T04:05:10;12.20;;;3.30;;
59388;SDS011;51830;45.202;19.720;2023-10-09T04:07:36;6.78;;;2.13;;
59388;SDS011;51830;45.202;19.720;2023-10-09T04:10:03;9.15;;;2.35;;
59388;SDS011;51830;45.202;19.720;2023-10-09T04:12:49;7.05;;;2.50;;
59388;SDS011;51830;45.202;19.720;2023-10-09T04:15:18;6.63;;;2.08;;
59388;SDS011;51830;45.202;19.720;2023-10-09T04:17:48;7.38;;;2.28;;
59388;SDS011;51830;45.202;19.720;2023-10-09T04:20:17;7.93;;;2.03;;
59388;SDS011;51830;45.202;19.720;2023-10-09T04:22:43;8.30;;;2.33;;
59388;SDS011;51830;45.202;19.720;2023-10-09T04:25:19;7.13;;;1.98;;
59388;SDS011;51830;45.202;19.720;2023-10-09T04:27:52;14.60;;;3.25;;
59388;SDS011;51830;45.202;19.720;2023-10-09T04:30:18;17.35;;;5.55;;
59388;SDS011;51830;45.202;19.720;2023-10-09T04:32:45;18.02;;;6.15;;
59388;SDS011;51830;45.202;19.720;2023-10-09T04:35:12;17.92;;;5.05;;
59388;SDS011;51830;45.202;19.720;2023-10-09T04:37:44;38.28;;;17.80;;
59388;SDS011;51830;45.202;19.720;2023-10-09T04:40:20;18.15;;;5.47;;
59388;SDS011;51830;45.202;19.720;2023-10-09T04:43:05;9.02;;;2.75;;
59388;SDS011;51830;45.202;19.720;2023-10-09T04:45:38;16.90;;;4.82;;
59388;SDS011;51830;45.202;19.720;2023-10-09T04:48:22;16.55;;;5.45;;
59388;SDS011;51830;45.202;19.720;2023-10-09T04:51:10;17.17;;;4.80;;
59388;SDS011;51830;45.202;19.720;2023-10-09T04:54:02;11.32;;;3.00;;
59388;SDS011;51830;45.202;19.720;2023-10-09T04:56:40;14.63;;;4.07;;
59388;SDS011;51830;45.202;19.720;2023-10-09T04:59:25;16.02;;;5.07;;
59388;SDS011;51830;45.202;19.720;2023-10-09T05:01:51;28.35;;;10.50;;
59388;SDS011;51830;45.202;19.720;2023-10-09T05:04:25;18.83;;;6.35;;
59388;SDS011;51830;45.202;19.720;2023-10-09T05:07:11;9.82;;;2.72;;
59388;SDS011;51830;45.202;19.720;2023-10-09T05:10:16;10.00;;;2.47;;
59388;SDS011;51830;45.202;19.720;2023-10-09T05:12:49;9.77;;;2.65;;
59388;SDS011;51830;45.202;19.720;2023-10-09T05:15:23;10.48;;;3.17;;
59388;SDS011;51830;45.202;19.720;2023-10-09T05:20:43;12.23;;;2.90;;
59388;SDS011;51830;45.202;19.720;2023-10-09T05:23:31;8.85;;;2.50;;
59388;SDS011;51830;45.202;19.720;2023-10-09T05:26:17;11.65;;;3.00;;
59388;SDS011;51830;45.202;19.720;2023-10-09T05:29:02;11.25;;;2.92;;
59388;SDS011;51830;45.202;19.720;2023-10-09T05:31:48;12.63;;;2.90;;
59388;SDS011;51830;45.202;19.720;2023-10-09T05:34:33;14.47;;;3.23;;
59388;SDS011;51830;45.202;19.720;2023-10-09T05:37:02;14.38;;;3.78;;
59388;SDS011;51830;45.202;19.720;2023-10-09T05:39:53;15.10;;;3.20;;
59388;SDS011;51830;45.202;19.720;2023-10-09T05:42:32;15.07;;;3.80;;
59388;SDS011;51830;45.202;19.720;2023-10-09T05:45:02;11.52;;;2.80;;
59388;SDS011;51830;45.202;19.720;2023-10-09T05:47:34;9.77;;;2.67;;
59388;SDS011;51830;45.202;19.720;2023-10-09T05:50:02;10.57;;;2.88;;
59388;SDS011;51830;45.202;19.720;2023-10-09T05:52:35;12.98;;;3.25;;
59388;SDS011;51830;45.202;19.720;2023-10-09T05:55:07;18.73;;;3.92;;
59388;SDS011;51830;45.202;19.720;2023-10-09T05:57:52;12.77;;;3.83;;
59388;SDS011;51830;45.202;19.720;2023-10-09T06:00:21;15.60;;;4.40;;
59388;SDS011;51830;45.202;19.720;2023-10-09T06:03:06;21.80;;;5.78;;
59388;SDS011;51830;45.202;19.720;2023-10-09T06:05:45;89.72;;;32.38;;
59388;SDS011;51830;45.202;19.720;2023-10-09T06:08:24;91.65;;;32.38;;
59388;SDS011;51830;45.202;19.720;2023-10-09T06:11:12;30.90;;;9.95;;
59388;SDS011;51830;45.202;19.720;2023-10-09T06:13:57;21.30;;;6.45;;
59388;SDS011;51830;45.202;19.720;2023-10-09T06:16:30;18.88;;;4.88;;
59388;SDS011;51830;45.202;19.720;2023-10-09T06:19:15;16.33;;;3.90;;
59388;SDS011;51830;45.202;19.720;2023-10-09T06:21:45;14.68;;;3.88;;
59388;SDS011;51830;45.202;19.720;2023-10-09T06:24:18;13.52;;;3.13;;
59388;SDS011;51830;45.202;19.720;2023-10-09T06:26:44;9.77;;;2.72;;
59388;SDS011;51830;45.202;19.720;2023-10-09T06:29:24;10.40;;;2.60;;
59388;SDS011;51830;45.202;19.720;2023-10-09T06:32:09;7.78;;;2.17;;
59388;SDS011;51830;45.202;19.720;2023-10-09T06:34:45;11.27;;;3.38;;
59388;SDS011;51830;45.202;19.720;2023-10-09T06:37:17;11.25;;;2.45;;
59388;SDS011;51830;45.202;19.720;2023-10-09T06:40:00;9.98;;;2.67;;
59388;SDS011;51830;45.202;19.720;2023-10-09T06:43:01;13.13;;;3.30;;
59388;SDS011;51830;45.202;19.720;2023-10-09T06:45:35;8.10;;;2.45;;
59388;SDS011;51830;45.202;19.720;2023-10-09T06:48:11;14.18;;;3.60;;
59388;SDS011;51830;45.202;19.720;2023-10-09T06:50:56;11.27;;;2.60;;
59388;SDS011;51830;45.202;19.720;2023-10-09T06:53:42;10.45;;;2.55;;
59388;SDS011;51830;45.202;19.720;2023-10-09T06:56:18;11.40;;;3.05;;
59388;SDS011;51830;45.202;19.720;2023-10-09T06:58:56;11.60;;;2.60;;
59388;SDS011;51830;45.202;19.720;2023-10-09T07:01:26;12.05;;;2.85;;
59388;SDS011;51830;45.202;19.720;2023-10-09T07:03:52;8.43;;;2.55;;
59388;SDS011;51830;45.202;19.720;2023-10-09T07:06:22;13.75;;;2.75;;
59388;SDS011;51830;45.202;19.720;2023-10-09T07:08:54;10.15;;;2.38;;
59388;SDS011;51830;45.202;19.720;2023-10-09T07:11:31;9.48;;;2.47;;
59388;SDS011;51830;45.202;19.720;2023-10-09T07:14:10;9.55;;;2.60;;
59388;SDS011;51830;45.202;19.720;2023-10-09T07:17:02;7.40;;;2.20;;
59388;SDS011;51830;45.202;19.720;2023-10-09T07:19:47;10.45;;;2.50;;
59388;SDS011;51830;45.202;19.720;2023-10-09T07:22:14;9.25;;;2.40;;
59388;SDS011;51830;45.202;19.720;2023-10-09T07:25:06;11.88;;;2.60;;
59388;SDS011;51830;45.202;19.720;2023-10-09T07:27:53;5.85;;;2.03;;
59388;SDS011;51830;45.202;19.720;2023-10-09T07:30:21;6.30;;;1.83;;
59388;SDS011;51830;45.202;19.720;2023-10-09T07:32:57;8.35;;;1.98;;
59388;SDS011;51830;45.202;19.720;2023-10-09T07:35:35;9.27;;;2.42;;
59388;SDS011;51830;45.202;19.720;2023-10-09T07:38:23;7.18;;;2.00;;
59388;SDS011;51830;45.202;19.720;2023-10-09T07:41:00;9.23;;;2.47;;
59388;SDS011;51830;45.202;19.720;2023-10-09T07:43:31;8.70;;;2.20;;
59388;SDS011;51830;45.202;19.720;2023-10-09T07:46:10;9.73;;;2.30;;
59388;SDS011;51830;45.202;19.720;2023-10-09T07:48:55;7.65;;;1.95;;
59388;SDS011;51830;45.202;19.720;2023-10-09T07:51:22;8.60;;;2.00;;
59388;SDS011;51830;45.202;19.720;2023-10-09T07:53:57;7.18;;;2.20;;
59388;SDS011;51830;45.202;19.720;2023-10-09T07:56:42;7.80;;;2.20;;
59388;SDS011;51830;45.202;19.720;2023-10-09T07:59:11;11.18;;;2.38;;
59388;SDS011;51830;45.202;19.720;2023-10-09T08:01:39;8.80;;;2.30;;
59388;SDS011;51830;45.202;19.720;2023-10-09T08:04:17;8.25;;;2.17;;
59388;SDS011;51830;45.202;19.720;2023-10-09T08:06:45;9.98;;;2.05;;
59388;SDS011;51830;45.202;19.720;2023-10-09T08:09:12;9.05;;;2.00;;
59388;SDS011;51830;45.202;19.720;2023-10-09T08:11:42;10.00;;;2.60;;
59388;SDS011;51830;45.202;19.720;2023-10-09T08:14:08;9.05;;;2.13;;
59388;SDS011;51830;45.202;19.720;2023-10-09T08:17:06;4.97;;;1.80;;
59388;SDS011;51830;45.202;19.720;2023-10-09T08:19:45;10.13;;;2.33;;
59388;SDS011;51830;45.202;19.720;2023-10-09T08:22:27;6.75;;;1.60;;
59388;SDS011;51830;45.202;19.720;2023-10-09T08:24:54;6.88;;;2.05;;
59388;SDS011;51830;45.202;19.720;2023-10-09T08:29:58;6.60;;;1.77;;
59388;SDS011;51830;45.202;19.720;2023-10-09T08:32:47;7.45;;;2.15;;
59388;SDS011;51830;45.202;19.720;2023-10-09T08:37:57;6.10;;;1.80;;
59388;SDS011;51830;45.202;19.720;2023-10-09T08:40:35;7.90;;;2.13;;
59388;SDS011;51830;45.202;19.720;2023-10-09T08:43:14;8.75;;;2.15;;
59388;SDS011;51830;45.202;19.720;2023-10-09T08:45:45;9.73;;;2.42;;
59388;SDS011;51830;45.202;19.720;2023-10-09T08:48:11;9.45;;;2.65;;
59388;SDS011;51830;45.202;19.720;2023-10-09T08:50:44;8.95;;;2.08;;
59388;SDS011;51830;45.202;19.720;2023-10-09T08:53:11;8.80;;;2.22;;
59388;SDS011;51830;45.202;19.720;2023-10-09T08:55:38;11.23;;;2.47;;
59388;SDS011;51830;45.202;19.720;2023-10-09T08:58:05;8.07;;;2.15;;
59388;SDS011;51830;45.202;19.720;2023-10-09T09:00:48;12.50;;;2.60;;
59388;SDS011;51830;45.202;19.720;2023-10-09T09:03:15;8.35;;;2.10;;
59388;SDS011;51830;45.202;19.720;2023-10-09T09:05:49;8.52;;;2.30;;
59388;SDS011;51830;45.202;19.720;2023-10-09T09:08:23;7.38;;;2.22;;
59388;SDS011;51830;45.202;19.720;2023-10-09T09:10:56;10.55;;;2.50;;
59388;SDS011;51830;45.202;19.720;2023-10-09T09:13:46;11.82;;;2.58;;
59388;SDS011;51830;45.202;19.720;2023-10-09T09:16:19;11.18;;;1.90;;
59388;SDS011;51830;45.202;19.720;2023-10-09T09:18:49;9.20;;;2.13;;
59388;SDS011;51830;45.202;19.720;2023-10-09T09:21:25;10.40;;;2.47;;
59388;SDS011;51830;45.202;19.720;2023-10-09T09:23:56;7.85;;;2.10;;
59388;SDS011;51830;45.202;19.720;2023-10-09T09:26:36;6.43;;;1.92;;
59388;SDS011;51830;45.202;19.720;2023-10-09T09:29:04;9.07;;;2.25;;
59388;SDS011;51830;45.202;19.720;2023-10-09T09:31:31;14.70;;;2.55;;
59388;SDS011;51830;45.202;19.720;2023-10-09T09:34:03;7.90;;;2.17;;
59388;SDS011;51830;45.202;19.720;2023-10-09T09:36:37;6.25;;;2.00;;
59388;SDS011;51830;45.202;19.720;2023-10-09T09:39:03;9.32;;;2.40;;
59388;SDS011;51830;45.202;19.720;2023-10-09T09:41:43;8.77;;;2.35;;
59388;SDS011;51830;45.202;19.720;2023-10-09T09:44:10;7.60;;;2.17;;
59388;SDS011;51830;45.202;19.720;2023-10-09T09:46:42;8.35;;;2.55;;
59388;SDS011;51830;45.202;19.720;2023-10-09T09:49:09;8.82;;;2.30;;
59388;SDS011;51830;45.202;19.720;2023-10-09T09:51:46;8.70;;;2.35;;
59388;SDS011;51830;45.202;19.720;2023-10-09T09:54:13;10.48;;;2.47;;
59388;SDS011;51830;45.202;19.720;2023-10-09T09:56:46;10.80;;;2.55;;
59388;SDS011;51830;45.202;19.720;2023-10-09T09:59:16;13.38;;;3.03;;
59388;SDS011;51830;45.202;19.720;2023-10-09T10:01:48;9.35;;;2.40;;
59388;SDS011;51830;45.202;19.720;2023-10-09T10:04:31;8.63;;;2.53;;
59388;SDS011;51830;45.202;19.720;2023-10-09T10:07:00;11.10;;;2.78;;
59388;SDS011;51830;45.202;19.720;2023-10-09T10:09:37;9.82;;;2.63;;
59388;SDS011;51830;45.202;19.720;2023-10-09T10:18:21;10.45;;;2.38;;
59388;SDS011;51830;45.202;19.720;2023-10-09T10:20:28;9.07;;;2.55;;
59388;SDS011;51830;45.202;19.720;2023-10-09T10:23:15;8.93;;;2.45;;
59388;SDS011;51830;45.202;19.720;2023-10-09T10:25:50;10.93;;;3.05;;
59388;SDS011;51830;45.202;19.720;2023-10-09T10:28:25;11.77;;;3.00;;
59388;SDS011;51830;45.202;19.720;2023-10-09T10:31:04;13.25;;;3.15;;
59388;SDS011;51830;45.202;19.720;2023-10-09T10:36:35;14.02;;;2.97;;
59388;SDS011;51830;45.202;19.720;2023-10-09T10:39:06;12.18;;;2.83;;
59388;SDS011;51830;45.202;19.720;2023-10-09T10:41:36;11.00;;;3.05;;
59388;SDS011;51830;45.202;19.720;2023-10-09T10:44:16;13.75;;;3.38;;
59388;SDS011;51830;45.202;19.720;2023-10-09T10:47:03;11.90;;;3.08;;
59388;SDS011;51830;45.202;19.720;2023-10-09T10:49:29;13.80;;;3.17;;
59388;SDS011;51830;45.202;19.720;2023-10-09T10:52:04;15.05;;;3.63;;
59388;SDS011;51830;45.202;19.720;2023-10-09T10:54:53;10.80;;;2.70;;
59388;SDS011;51830;45.202;19.720;2023-10-09T10:57:42;9.90;;;2.88;;
59388;SDS011;51830;45.202;19.720;2023-10-09T11:00:27;12.90;;;3.45;;
59388;SDS011;51830;45.202;19.720;2023-10-09T11:03:18;11.45;;;2.97;;
59388;SDS011;51830;45.202;19.720;2023-10-09T11:05:54;12.87;;;3.17;;
59388;SDS011;51830;45.202;19.720;2023-10-09T11:08:24;13.50;;;3.30;;
59388;SDS011;51830;45.202;19.720;2023-10-09T11:11:13;12.57;;;3.17;;
59388;SDS011;51830;45.202;19.720;2023-10-09T11:13:44;13.90;;;3.30;;
59388;SDS011;51830;45.202;19.720;2023-10-09T11:16:24;13.13;;;3.35;;
59388;SDS011;51830;45.202;19.720;2023-10-09T11:19:10;14.10;;;3.90;;
59388;SDS011;51830;45.202;19.720;2023-10-09T11:22:00;15.25;;;3.75;;
59388;SDS011;51830;45.202;19.720;2023-10-09T11:24:33;12.77;;;3.60;;
59388;SDS011;51830;45.202;19.720;2023-10-09T11:27:03;15.63;;;3.80;;
59388;SDS011;51830;45.202;19.720;2023-10-09T11:29:52;14.02;;;3.25;;
59388;SDS011;51830;45.202;19.720;2023-10-09T11:32:20;14.07;;;3.58;;
59388;SDS011;51830;45.202;19.720;2023-10-09T11:35:08;14.02;;;3.70;;
59388;SDS011;51830;45.202;19.720;2023-10-09T11:37:34;13.50;;;3.35;;
59388;SDS011;51830;45.202;19.720;2023-10-09T11:40:28;13.38;;;3.28;;
59388;SDS011;51830;45.202;19.720;2023-10-09T11:43:02;16.38;;;3.30;;
59388;SDS011;51830;45.202;19.720;2023-10-09T11:45:29;13.32;;;3.50;;
59388;SDS011;51830;45.202;19.720;2023-10-09T11:47:56;15.07;;;3.90;;
59388;SDS011;51830;45.202;19.720;2023-10-09T11:50:40;16.73;;;3.95;;
59388;SDS011;51830;45.202;19.720;2023-10-09T11:53:22;15.43;;;3.88;;
59388;SDS011;51830;45.202;19.720;2023-10-09T11:55:48;15.45;;;4.20;;
59388;SDS011;51830;45.202;19.720;2023-10-09T11:58:18;18.17;;;4.45;;
59388;SDS011;51830;45.202;19.720;2023-10-09T12:03:17;22.33;;;8.77;;
59388;SDS011;51830;45.202;19.720;2023-10-09T12:05:47;17.00;;;5.82;;
59388;SDS011;51830;45.202;19.720;2023-10-09T12:08:13;14.52;;;3.95;;
59388;SDS011;51830;45.202;19.720;2023-10-09T12:10:41;13.02;;;3.35;;
59388;SDS011;51830;45.202;19.720;2023-10-09T12:13:07;20.10;;;4.85;;
59388;SDS011;51830;45.202;19.720;2023-10-09T12:15:33;16.38;;;3.85;;
59388;SDS011;51830;45.202;19.720;2023-10-09T12:18:06;15.80;;;4.30;;
59388;SDS011;51830;45.202;19.720;2023-10-09T12:20:34;14.00;;;3.87;;
59388;SDS011;51830;45.202;19.720;2023-10-09T12:23:02;16.35;;;4.32;;
59388;SDS011;51830;45.202;19.720;2023-10-09T12:25:31;14.40;;;4.28;;
59388;SDS011;51830;45.202;19.720;2023-10-09T12:27:59;15.65;;;4.25;;
59388;SDS011;51830;45.202;19.720;2023-10-09T12:30:27;19.80;;;5.03;;
59388;SDS011;51830;45.202;19.720;2023-10-09T12:32:54;17.38;;;5.32;;
59388;SDS011;51830;45.202;19.720;2023-10-09T12:35:22;17.73;;;6.50;;
59388;SDS011;51830;45.202;19.720;2023-10-09T12:37:50;18.17;;;5.82;;
59388;SDS011;51830;45.202;19.720;2023-10-09T12:40:16;20.05;;;6.28;;
59388;SDS011;51830;45.202;19.720;2023-10-09T12:42:51;16.90;;;5.63;;
59388;SDS011;51830;45.202;19.720;2023-10-09T12:45:18;19.60;;;6.68;;
59388;SDS011;51830;45.202;19.720;2023-10-09T12:47:51;22.10;;;6.45;;
59388;SDS011;51830;45.202;19.720;2023-10-09T12:50:18;19.02;;;6.18;;
59388;SDS011;51830;45.202;19.720;2023-10-09T12:52:53;19.08;;;6.80;;
59388;SDS011;51830;45.202;19.720;2023-10-09T12:55:19;19.45;;;5.68;;
59388;SDS011;51830;45.202;19.720;2023-10-09T12:57:49;18.42;;;6.35;;
59388;SDS011;51830;45.202;19.720;2023-10-09T13:00:16;18.10;;;5.75;;
59388;SDS011;51830;45.202;19.720;2023-10-09T13:02:51;17.80;;;6.25;;
59388;SDS011;51830;45.202;19.720;2023-10-09T13:05:17;19.35;;;6.50;;
59388;SDS011;51830;45.202;19.720;2023-10-09T13:07:52;19.67;;;6.15;;
59388;SDS011;51830;45.202;19.720;2023-10-09T13:10:21;16.60;;;5.75;;
59388;SDS011;51830;45.202;19.720;2023-10-09T13:12:49;20.10;;;6.07;;
59388;SDS011;51830;45.202;19.720;2023-10-09T13:15:20;16.67;;;5.90;;
59388;SDS011;51830;45.202;19.720;2023-10-09T13:17:47;17.02;;;5.95;;
59388;SDS011;51830;45.202;19.720;2023-10-09T13:20:13;16.67;;;5.45;;
59388;SDS011;51830;45.202;19.720;2023-10-09T13:22:39;19.08;;;5.95;;
59388;SDS011;51830;45.202;19.720;2023-10-09T13:25:07;18.92;;;5.93;;
59388;SDS011;51830;45.202;19.720;2023-10-09T13:27:41;17.77;;;5.93;;
59388;SDS011;51830;45.202;19.720;2023-10-09T13:30:07;18.00;;;5.93;;
59388;SDS011;51830;45.202;19.720;2023-10-09T13:32:46;17.35;;;6.32;;
59388;SDS011;51830;45.202;19.720;2023-10-09T13:35:14;18.10;;;6.90;;
59388;SDS011;51830;45.202;19.720;2023-10-09T13:37:42;19.10;;;6.10;;
59388;SDS011;51830;45.202;19.720;2023-10-09T13:40:09;18.88;;;6.40;;
59388;SDS011;51830;45.202;19.720;2023-10-09T13:42:37;20.35;;;6.68;;
59388;SDS011;51830;45.202;19.720;2023-10-09T13:45:03;17.23;;;5.78;;
59388;SDS011;51830;45.202;19.720;2023-10-09T13:47:40;18.15;;;6.10;;
59388;SDS011;51830;45.202;19.720;2023-10-09T13:50:09;22.55;;;9.35;;
59388;SDS011;51830;45.202;19.720;2023-10-09T13:52:35;34.28;;;15.30;;
59388;SDS011;51830;45.202;19.720;2023-10-09T13:55:05;19.15;;;6.72;;
59388;SDS011;51830;45.202;19.720;2023-10-09T13:57:40;26.58;;;9.55;;
59388;SDS011;51830;45.202;19.720;2023-10-09T14:00:11;30.10;;;13.48;;
59388;SDS011;51830;45.202;19.720;2023-10-09T14:02:42;21.27;;;8.85;;
59388;SDS011;51830;45.202;19.720;2023-10-09T14:05:08;23.10;;;7.30;;
59388;SDS011;51830;45.202;19.720;2023-10-09T14:07:34;18.58;;;6.45;;
59388;SDS011;51830;45.202;19.720;2023-10-09T14:10:00;19.58;;;6.60;;
59388;SDS011;51830;45.202;19.720;2023-10-09T14:12:42;18.77;;;6.25;;
59388;SDS011;51830;45.202;19.720;2023-10-09T14:15:08;21.52;;;6.43;;
59388;SDS011;51830;45.202;19.720;2023-10-09T14:17:42;18.35;;;5.53;;
59388;SDS011;51830;45.202;19.720;2023-10-09T14:20:08;16.52;;;5.28;;
59388;SDS011;51830;45.202;19.720;2023-10-09T14:22:53;17.38;;;5.80;;
59388;SDS011;51830;45.202;19.720;2023-10-09T14:25:19;19.85;;;5.95;;
59388;SDS011;51830;45.202;19.720;2023-10-09T14:27:46;17.55;;;6.63;;
59388;SDS011;51830;45.202;19.720;2023-10-09T14:30:13;18.70;;;5.90;;
59388;SDS011;51830;45.202;19.720;2023-10-09T14:32:48;18.70;;;6.15;;
59388;SDS011;51830;45.202;19.720;2023-10-09T14:35:20;17.42;;;5.70;;
59388;SDS011;51830;45.202;19.720;2023-10-09T14:37:52;18.20;;;5.90;;
59388;SDS011;51830;45.202;19.720;2023-10-09T14:40:21;19.02;;;5.82;;
59388;SDS011;51830;45.202;19.720;2023-10-09T14:42:55;19.45;;;6.07;;
59388;SDS011;51830;45.202;19.720;2023-10-09T14:45:26;18.85;;;5.43;;
59388;SDS011;51830;45.202;19.720;2023-10-09T14:47:52;19.70;;;6.00;;
59388;SDS011;51830;45.202;19.720;2023-10-09T14:50:27;22.10;;;6.18;;
59388;SDS011;51830;45.202;19.720;2023-10-09T14:52:54;17.65;;;5.20;;
59388;SDS011;51830;45.202;19.720;2023-10-09T14:55:20;17.35;;;6.15;;
59388;SDS011;51830;45.202;19.720;2023-10-09T14:57:47;15.93;;;5.15;;
59388;SDS011;51830;45.202;19.720;2023-10-09T15:00:15;17.58;;;5.63;;
59388;SDS011;51830;45.202;19.720;2023-10-09T15:02:48;17.75;;;6.20;;
59388;SDS011;51830;45.202;19.720;2023-10-09T15:05:14;18.27;;;5.93;;
59388;SDS011;51830;45.202;19.720;2023-10-09T15:07:44;19.45;;;6.00;;
59388;SDS011;51830;45.202;19.720;2023-10-09T15:10:10;22.08;;;5.82;;
59388;SDS011;51830;45.202;19.720;2023-10-09T15:12:40;19.65;;;5.65;;
59388;SDS011;51830;45.202;19.720;2023-10-09T15:15:08;19.08;;;6.30;;
59388;SDS011;51830;45.202;19.720;2023-10-09T15:17:55;19.73;;;6.07;;
59388;SDS011;51830;45.202;19.720;2023-10-09T15:20:24;18.80;;;6.05;;
59388;SDS011;51830;45.202;19.720;2023-10-09T15:22:52;17.73;;;5.40;;